sensor_id;sensor_type;location;lat;lon;timestamp;temperature;humidity
1994;DHT22;998;49.906;10.908;2022-12-29T00:00:20;7.40;99.90
1994;DHT22;998;49.906;10.908;2022-12-29T00:02:48;7.40;99.90
1994;DHT22;998;49.906;10.908;2022-12-29T00:05:17;7.40;99.90
1994;DHT22;998;49.906;10.908;2022-12-29T00:07:44;7.40;99.90
1994;DHT22;998;49.906;10.908;2022-12-29T00:10:11;7.50;99.90
1994;DHT22;998;49.906;10.908;2022-12-29T00:12:39;7.50;99.90
1994;DHT22;998;49.906;10.908;2022-12-29T00:15:23;7.50;99.90
1994;DHT22;998;49.906;10.908;2022-12-29T00:18:06;7.50;99.90
1994;DHT22;998;49.906;10.908;2022-12-29T00:20:36;7.50;99.90
1994;DHT22;998;49.906;10.908;2022-12-29T00:23:22;7.60;99.90
1994;DHT22;998;49.906;10.908;2022-12-29T00:26:12;7.60;99.90
1994;DHT22;998;49.906;10.908;2022-12-29T00:29:09;7.60;99.90
1994;DHT22;998;49.906;10.908;2022-12-29T00:31:54;7.60;99.90
1994;DHT22;998;49.906;10.908;2022-12-29T00:34:38;7.60;99.90
1994;DHT22;998;49.906;10.908;2022-12-29T00:37:25;7.60;99.90
1994;DHT22;998;49.906;10.908;2022-12-29T00:40:07;7.70;99.90
1994;DHT22;998;49.906;10.908;2022-12-29T00:42:52;7.70;99.90
1994;DHT22;998;49.906;10.908;2022-12-29T00:45:36;7.70;99.90
1994;DHT22;998;49.906;10.908;2022-12-29T00:48:06;7.70;99.90
1994;DHT22;998;49.906;10.908;2022-12-29T00:50:34;7.70;99.90
1994;DHT22;998;49.906;10.908;2022-12-29T00:53:01;7.70;99.90
1994;DHT22;998;49.906;10.908;2022-12-29T00:55:29;7.70;99.90
1994;DHT22;998;49.906;10.908;2022-12-29T00:57:56;7.70;99.90
1994;DHT22;998;49.906;10.908;2022-12-29T01:00:24;7.80;99.90
1994;DHT22;998;49.906;10.908;2022-12-29T01:02:51;7.80;99.90
1994;DHT22;998;49.906;10.908;2022-12-29T01:05:18;7.80;99.90
1994;DHT22;998;49.906;10.908;2022-12-29T01:07:46;7.80;99.90
1994;DHT22;998;49.906;10.908;2022-12-29T01:10:15;7.80;99.90
1994;DHT22;998;49.906;10.908;2022-12-29T01:12:41;7.80;99.90
1994;DHT22;998;49.906;10.908;2022-12-29T01:15:11;7.80;99.90
1994;DHT22;998;49.906;10.908;2022-12-29T01:17:39;7.80;99.90
1994;DHT22;998;49.906;10.908;2022-12-29T01:20:07;7.80;99.90
1994;DHT22;998;49.906;10.908;2022-12-29T01:22:35;7.90;99.90
1994;DHT22;998;49.906;10.908;2022-12-29T01:25:03;7.90;99.90
1994;DHT22;998;49.906;10.908;2022-12-29T01:27:32;7.90;99.90
1994;DHT22;998;49.906;10.908;2022-12-29T01:29:59;7.90;99.90
1994;DHT22;998;49.906;10.908;2022-12-29T01:32:26;8.00;99.90
1994;DHT22;998;49.906;10.908;2022-12-29T01:34:53;8.00;99.90
1994;DHT22;998;49.906;10.908;2022-12-29T01:37:21;8.00;99.90
1994;DHT22;998;49.906;10.908;2022-12-29T01:39:48;8.10;99.90
1994;DHT22;998;49.906;10.908;2022-12-29T01:42:17;8.10;99.90
1994;DHT22;998;49.906;10.908;2022-12-29T01:44:51;8.10;99.90
1994;DHT22;998;49.906;10.908;2022-12-29T01:47:25;8.10;99.90
1994;DHT22;998;49.906;10.908;2022-12-29T01:49:54;8.10;99.90
1994;DHT22;998;49.906;10.908;2022-12-29T01:52:23;8.20;99.90
1994;DHT22;998;49.906;10.908;2022-12-29T01:54:53;8.20;99.90
1994;DHT22;998;49.906;10.908;2022-12-29T01:57:24;8.20;99.90
1994;DHT22;998;49.906;10.908;2022-12-29T01:59:56;8.20;99.90
1994;DHT22;998;49.906;10.908;2022-12-29T02:02:25;8.30;99.90
1994;DHT22;998;49.906;10.908;2022-12-29T02:04:53;8.20;99.90
1994;DHT22;998;49.906;10.908;2022-12-29T02:07:25;8.30;99.90
1994;DHT22;998;49.906;10.908;2022-12-29T02:09:55;8.30;99.90
1994;DHT22;998;49.906;10.908;2022-12-29T02:12:23;8.30;99.90
1994;DHT22;998;49.906;10.908;2022-12-29T02:14:55;8.30;99.90
1994;DHT22;998;49.906;10.908;2022-12-29T02:17:39;8.30;99.90
1994;DHT22;998;49.906;10.908;2022-12-29T02:23:36;8.40;99.90
1994;DHT22;998;49.906;10.908;2022-12-29T02:26:21;8.40;99.90
1994;DHT22;998;49.906;10.908;2022-12-29T02:29:33;8.40;99.90
1994;DHT22;998;49.906;10.908;2022-12-29T02:32:13;8.40;99.90
1994;DHT22;998;49.906;10.908;2022-12-29T02:34:47;8.40;99.90
1994;DHT22;998;49.906;10.908;2022-12-29T02:37:24;8.50;99.90
1994;DHT22;998;49.906;10.908;2022-12-29T02:39:59;8.50;99.90
1994;DHT22;998;49.906;10.908;2022-12-29T02:42:35;8.50;99.90
1994;DHT22;998;49.906;10.908;2022-12-29T02:45:04;8.60;99.90
1994;DHT22;998;49.906;10.908;2022-12-29T02:47:40;8.60;99.90
1994;DHT22;998;49.906;10.908;2022-12-29T02:50:14;8.60;99.90
1994;DHT22;998;49.906;10.908;2022-12-29T02:52:48;8.60;99.90
1994;DHT22;998;49.906;10.908;2022-12-29T02:55:17;8.70;99.90
1994;DHT22;998;49.906;10.908;2022-12-29T02:57:43;8.70;99.90
1994;DHT22;998;49.906;10.908;2022-12-29T03:00:13;8.80;99.90
1994;DHT22;998;49.906;10.908;2022-12-29T03:03:02;8.80;99.90
1994;DHT22;998;49.906;10.908;2022-12-29T03:05:54;8.80;99.90
1994;DHT22;998;49.906;10.908;2022-12-29T03:08:31;8.90;99.90
1994;DHT22;998;49.906;10.908;2022-12-29T03:11:01;8.90;99.90
1994;DHT22;998;49.906;10.908;2022-12-29T03:13:34;8.90;99.90
1994;DHT22;998;49.906;10.908;2022-12-29T03:16:23;8.90;99.90
1994;DHT22;998;49.906;10.908;2022-12-29T03:18:58;8.90;99.90
1994;DHT22;998;49.906;10.908;2022-12-29T03:21:32;8.90;99.90
1994;DHT22;998;49.906;10.908;2022-12-29T03:24:18;8.90;99.90
1994;DHT22;998;49.906;10.908;2022-12-29T03:26:48;8.90;99.90
1994;DHT22;998;49.906;10.908;2022-12-29T03:29:17;8.90;99.90
1994;DHT22;998;49.906;10.908;2022-12-29T03:31:47;8.90;99.90
1994;DHT22;998;49.906;10.908;2022-12-29T03:34:19;8.90;99.90
1994;DHT22;998;49.906;10.908;2022-12-29T03:36:50;8.90;99.90
1994;DHT22;998;49.906;10.908;2022-12-29T03:39:21;8.90;99.90
1994;DHT22;998;49.906;10.908;2022-12-29T03:41:52;8.80;99.90
1994;DHT22;998;49.906;10.908;2022-12-29T03:44:21;8.80;99.90
1994;DHT22;998;49.906;10.908;2022-12-29T03:46:48;8.80;99.90
1994;DHT22;998;49.906;10.908;2022-12-29T03:49:18;8.80;99.90
1994;DHT22;998;49.906;10.908;2022-12-29T03:51:45;8.90;99.90
1994;DHT22;998;49.906;10.908;2022-12-29T03:54:13;9.00;99.90
1994;DHT22;998;49.906;10.908;2022-12-29T03:56:40;9.00;99.90
1994;DHT22;998;49.906;10.908;2022-12-29T03:59:08;9.10;99.90
1994;DHT22;998;49.906;10.908;2022-12-29T04:01:35;9.10;99.90
1994;DHT22;998;49.906;10.908;2022-12-29T04:04:02;9.10;99.90
1994;DHT22;998;49.906;10.908;2022-12-29T04:06:31;9.10;99.90
1994;DHT22;998;49.906;10.908;2022-12-29T04:08:59;9.10;99.90
1994;DHT22;998;49.906;10.908;2022-12-29T04:11:27;9.10;99.90
1994;DHT22;998;49.906;10.908;2022-12-29T04:13:54;9.00;99.90
1994;DHT22;998;49.906;10.908;2022-12-29T04:16:21;9.00;99.90
1994;DHT22;998;49.906;10.908;2022-12-29T04:18:49;9.00;99.90
1994;DHT22;998;49.906;10.908;2022-12-29T04:21:16;9.00;99.90
1994;DHT22;998;49.906;10.908;2022-12-29T04:23:45;9.00;99.90
1994;DHT22;998;49.906;10.908;2022-12-29T04:26:12;9.00;99.90
1994;DHT22;998;49.906;10.908;2022-12-29T04:28:40;9.00;99.90
1994;DHT22;998;49.906;10.908;2022-12-29T04:31:07;8.90;99.90
1994;DHT22;998;49.906;10.908;2022-12-29T04:33:35;8.90;99.90
1994;DHT22;998;49.906;10.908;2022-12-29T04:36:02;8.90;99.90
1994;DHT22;998;49.906;10.908;2022-12-29T04:38:30;8.80;99.90
1994;DHT22;998;49.906;10.908;2022-12-29T04:41:01;8.80;99.90
1994;DHT22;998;49.906;10.908;2022-12-29T04:43:28;8.80;99.90
1994;DHT22;998;49.906;10.908;2022-12-29T04:45:56;8.70;99.90
1994;DHT22;998;49.906;10.908;2022-12-29T04:48:23;8.70;99.90
1994;DHT22;998;49.906;10.908;2022-12-29T04:50:51;8.70;99.90
1994;DHT22;998;49.906;10.908;2022-12-29T04:53:18;8.70;99.90
1994;DHT22;998;49.906;10.908;2022-12-29T04:55:49;8.70;99.90
1994;DHT22;998;49.906;10.908;2022-12-29T04:58:18;8.60;99.90
1994;DHT22;998;49.906;10.908;2022-12-29T05:00:45;8.60;99.90
1994;DHT22;998;49.906;10.908;2022-12-29T05:03:13;8.60;99.90
1994;DHT22;998;49.906;10.908;2022-12-29T05:05:41;8.60;99.90
1994;DHT22;998;49.906;10.908;2022-12-29T05:08:08;8.60;99.90
1994;DHT22;998;49.906;10.908;2022-12-29T05:10:35;8.60;99.90
1994;DHT22;998;49.906;10.908;2022-12-29T05:13:03;8.60;99.90
1994;DHT22;998;49.906;10.908;2022-12-29T05:15:32;8.60;99.90
1994;DHT22;998;49.906;10.908;2022-12-29T05:17:59;8.60;99.90
1994;DHT22;998;49.906;10.908;2022-12-29T05:20:26;8.60;99.90
1994;DHT22;998;49.906;10.908;2022-12-29T05:22:53;8.50;99.90
1994;DHT22;998;49.906;10.908;2022-12-29T05:25:21;8.50;99.90
1994;DHT22;998;49.906;10.908;2022-12-29T05:27:48;8.50;99.90
1994;DHT22;998;49.906;10.908;2022-12-29T05:30:15;8.50;99.90
1994;DHT22;998;49.906;10.908;2022-12-29T05:32:44;8.40;99.90
1994;DHT22;998;49.906;10.908;2022-12-29T05:35:12;8.40;99.90
1994;DHT22;998;49.906;10.908;2022-12-29T05:37:39;8.40;99.90
1994;DHT22;998;49.906;10.908;2022-12-29T05:40:07;8.40;99.90
1994;DHT22;998;49.906;10.908;2022-12-29T05:42:35;8.30;99.90
1994;DHT22;998;49.906;10.908;2022-12-29T05:45:03;8.30;99.90
1994;DHT22;998;49.906;10.908;2022-12-29T05:47:32;8.30;99.90
1994;DHT22;998;49.906;10.908;2022-12-29T05:50:02;8.30;99.90
1994;DHT22;998;49.906;10.908;2022-12-29T05:52:29;8.30;99.90
1994;DHT22;998;49.906;10.908;2022-12-29T05:54:57;8.30;99.90
1994;DHT22;998;49.906;10.908;2022-12-29T05:57:24;8.20;99.90
1994;DHT22;998;49.906;10.908;2022-12-29T05:59:51;8.30;99.90
1994;DHT22;998;49.906;10.908;2022-12-29T06:02:19;8.20;99.90
1994;DHT22;998;49.906;10.908;2022-12-29T06:04:46;8.20;99.90
1994;DHT22;998;49.906;10.908;2022-12-29T06:07:14;8.20;99.90
1994;DHT22;998;49.906;10.908;2022-12-29T06:09:42;8.20;99.90
1994;DHT22;998;49.906;10.908;2022-12-29T06:12:09;8.20;99.90
1994;DHT22;998;49.906;10.908;2022-12-29T06:14:36;8.10;99.90
1994;DHT22;998;49.906;10.908;2022-12-29T06:17:04;8.20;99.90
1994;DHT22;998;49.906;10.908;2022-12-29T06:19:31;8.20;99.90
1994;DHT22;998;49.906;10.908;2022-12-29T06:21:59;8.20;99.90
1994;DHT22;998;49.906;10.908;2022-12-29T06:24:27;8.20;99.90
1994;DHT22;998;49.906;10.908;2022-12-29T06:26:55;8.20;99.90
1994;DHT22;998;49.906;10.908;2022-12-29T06:29:22;8.20;99.90
1994;DHT22;998;49.906;10.908;2022-12-29T06:31:49;8.20;99.90
1994;DHT22;998;49.906;10.908;2022-12-29T06:34:21;8.30;99.90
1994;DHT22;998;49.906;10.908;2022-12-29T06:36:49;8.30;99.90
1994;DHT22;998;49.906;10.908;2022-12-29T06:39:16;8.30;99.90
1994;DHT22;998;49.906;10.908;2022-12-29T06:41:45;8.40;99.90
1994;DHT22;998;49.906;10.908;2022-12-29T06:44:12;8.40;99.90
1994;DHT22;998;49.906;10.908;2022-12-29T06:46:40;8.50;99.90
1994;DHT22;998;49.906;10.908;2022-12-29T06:49:07;8.60;99.90
1994;DHT22;998;49.906;10.908;2022-12-29T06:51:34;8.60;99.90
1994;DHT22;998;49.906;10.908;2022-12-29T06:54:02;8.60;99.90
1994;DHT22;998;49.906;10.908;2022-12-29T06:56:29;8.60;99.90
1994;DHT22;998;49.906;10.908;2022-12-29T06:58:58;8.60;99.90
1994;DHT22;998;49.906;10.908;2022-12-29T07:01:27;8.70;99.90
1994;DHT22;998;49.906;10.908;2022-12-29T07:03:54;8.70;99.90
1994;DHT22;998;49.906;10.908;2022-12-29T07:06:22;8.70;99.90
1994;DHT22;998;49.906;10.908;2022-12-29T07:08:49;8.70;99.90
1994;DHT22;998;49.906;10.908;2022-12-29T07:11:16;8.70;99.90
1994;DHT22;998;49.906;10.908;2022-12-29T07:13:44;8.70;99.90
1994;DHT22;998;49.906;10.908;2022-12-29T07:16:13;8.70;99.90
1994;DHT22;998;49.906;10.908;2022-12-29T07:18:40;8.70;99.90
1994;DHT22;998;49.906;10.908;2022-12-29T07:21:07;8.70;99.90
1994;DHT22;998;49.906;10.908;2022-12-29T07:23:35;8.70;99.90
1994;DHT22;998;49.906;10.908;2022-12-29T07:26:04;8.70;99.90
1994;DHT22;998;49.906;10.908;2022-12-29T07:28:31;8.70;99.90
1994;DHT22;998;49.906;10.908;2022-12-29T07:30:59;8.80;99.90
1994;DHT22;998;49.906;10.908;2022-12-29T07:33:30;8.80;99.90
1994;DHT22;998;49.906;10.908;2022-12-29T07:35:58;8.80;99.90
1994;DHT22;998;49.906;10.908;2022-12-29T07:38:26;8.80;99.90
1994;DHT22;998;49.906;10.908;2022-12-29T07:40:57;8.80;99.90
1994;DHT22;998;49.906;10.908;2022-12-29T07:43:25;8.90;99.90
1994;DHT22;998;49.906;10.908;2022-12-29T07:45:52;8.90;99.90
1994;DHT22;998;49.906;10.908;2022-12-29T07:48:20;8.90;99.90
1994;DHT22;998;49.906;10.908;2022-12-29T07:50:49;8.90;99.90
1994;DHT22;998;49.906;10.908;2022-12-29T07:53:16;8.90;99.90
1994;DHT22;998;49.906;10.908;2022-12-29T07:55:44;8.90;99.90
1994;DHT22;998;49.906;10.908;2022-12-29T07:58:11;8.90;99.90
1994;DHT22;998;49.906;10.908;2022-12-29T08:00:39;8.90;99.90
1994;DHT22;998;49.906;10.908;2022-12-29T08:03:06;8.90;99.90
1994;DHT22;998;49.906;10.908;2022-12-29T08:05:34;9.00;99.90
1994;DHT22;998;49.906;10.908;2022-12-29T08:08:03;9.00;99.90
1994;DHT22;998;49.906;10.908;2022-12-29T08:10:31;9.00;99.90
1994;DHT22;998;49.906;10.908;2022-12-29T08:12:58;9.10;99.90
1994;DHT22;998;49.906;10.908;2022-12-29T08:15:25;9.10;99.90
1994;DHT22;998;49.906;10.908;2022-12-29T08:17:53;9.10;99.90
1994;DHT22;998;49.906;10.908;2022-12-29T08:20:20;9.10;99.90
1994;DHT22;998;49.906;10.908;2022-12-29T08:22:48;9.10;99.90
1994;DHT22;998;49.906;10.908;2022-12-29T08:25:16;9.10;99.90
1994;DHT22;998;49.906;10.908;2022-12-29T08:27:45;9.10;99.90
1994;DHT22;998;49.906;10.908;2022-12-29T08:30:13;9.20;99.90
1994;DHT22;998;49.906;10.908;2022-12-29T08:32:40;9.30;99.90
1994;DHT22;998;49.906;10.908;2022-12-29T08:35:08;9.20;99.90
1994;DHT22;998;49.906;10.908;2022-12-29T08:37:36;9.30;99.90
1994;DHT22;998;49.906;10.908;2022-12-29T08:40:04;9.30;99.90
1994;DHT22;998;49.906;10.908;2022-12-29T08:42:33;9.30;99.90
1994;DHT22;998;49.906;10.908;2022-12-29T08:45:00;9.30;99.90
1994;DHT22;998;49.906;10.908;2022-12-29T08:47:27;9.30;99.90
1994;DHT22;998;49.906;10.908;2022-12-29T08:49:54;9.30;99.90
1994;DHT22;998;49.906;10.908;2022-12-29T08:52:21;9.40;99.90
1994;DHT22;998;49.906;10.908;2022-12-29T08:54:49;9.30;99.90
1994;DHT22;998;49.906;10.908;2022-12-29T08:57:16;9.40;99.90
1994;DHT22;998;49.906;10.908;2022-12-29T08:59:45;9.40;99.90
1994;DHT22;998;49.906;10.908;2022-12-29T09:02:12;9.40;99.90
1994;DHT22;998;49.906;10.908;2022-12-29T09:04:40;9.40;99.90
1994;DHT22;998;49.906;10.908;2022-12-29T09:07:07;9.50;99.90
1994;DHT22;998;49.906;10.908;2022-12-29T09:09:35;9.40;99.90
1994;DHT22;998;49.906;10.908;2022-12-29T09:12:02;9.50;99.90
1994;DHT22;998;49.906;10.908;2022-12-29T09:14:30;9.50;99.90
1994;DHT22;998;49.906;10.908;2022-12-29T09:16:59;9.50;99.90
1994;DHT22;998;49.906;10.908;2022-12-29T09:19:43;9.50;99.90
1994;DHT22;998;49.906;10.908;2022-12-29T09:22:11;9.50;99.90
1994;DHT22;998;49.906;10.908;2022-12-29T09:24:38;9.50;99.90
1994;DHT22;998;49.906;10.908;2022-12-29T09:27:05;9.50;99.90
1994;DHT22;998;49.906;10.908;2022-12-29T09:29:33;9.50;99.90
1994;DHT22;998;49.906;10.908;2022-12-29T09:32:01;9.60;99.90
1994;DHT22;998;49.906;10.908;2022-12-29T09:34:29;9.60;99.90
1994;DHT22;998;49.906;10.908;2022-12-29T09:36:56;9.50;99.90
1994;DHT22;998;49.906;10.908;2022-12-29T09:39:24;9.60;99.90
1994;DHT22;998;49.906;10.908;2022-12-29T09:42:00;9.60;99.90
1994;DHT22;998;49.906;10.908;2022-12-29T09:44:36;9.60;99.90
1994;DHT22;998;49.906;10.908;2022-12-29T09:47:09;9.60;99.90
1994;DHT22;998;49.906;10.908;2022-12-29T09:49:42;9.70;99.90
1994;DHT22;998;49.906;10.908;2022-12-29T09:52:15;9.70;99.90
1994;DHT22;998;49.906;10.908;2022-12-29T09:54:50;9.70;99.90
1994;DHT22;998;49.906;10.908;2022-12-29T09:57:22;9.70;99.90
1994;DHT22;998;49.906;10.908;2022-12-29T09:59:52;9.70;99.90
1994;DHT22;998;49.906;10.908;2022-12-29T10:02:29;9.80;99.90
1994;DHT22;998;49.906;10.908;2022-12-29T10:04:58;9.80;99.90
1994;DHT22;998;49.906;10.908;2022-12-29T10:07:34;9.90;99.90
1994;DHT22;998;49.906;10.908;2022-12-29T10:10:13;9.90;99.90
1994;DHT22;998;49.906;10.908;2022-12-29T10:12:55;9.90;99.90
1994;DHT22;998;49.906;10.908;2022-12-29T10:15:39;9.90;99.90
1994;DHT22;998;49.906;10.908;2022-12-29T10:18:20;9.90;99.90
1994;DHT22;998;49.906;10.908;2022-12-29T10:20:53;9.80;99.90
1994;DHT22;998;49.906;10.908;2022-12-29T10:23:28;9.80;99.90
1994;DHT22;998;49.906;10.908;2022-12-29T10:25:57;9.90;99.90
1994;DHT22;998;49.906;10.908;2022-12-29T10:28:33;9.90;99.90
1994;DHT22;998;49.906;10.908;2022-12-29T10:31:05;9.90;99.90
1994;DHT22;998;49.906;10.908;2022-12-29T10:33:37;9.90;99.90
1994;DHT22;998;49.906;10.908;2022-12-29T10:36:14;9.90;99.90
1994;DHT22;998;49.906;10.908;2022-12-29T10:38:48;9.90;99.90
1994;DHT22;998;49.906;10.908;2022-12-29T10:41:23;9.90;99.90
1994;DHT22;998;49.906;10.908;2022-12-29T10:43:54;9.90;99.90
1994;DHT22;998;49.906;10.908;2022-12-29T10:46:24;9.90;99.90
1994;DHT22;998;49.906;10.908;2022-12-29T10:48:54;9.90;99.90
1994;DHT22;998;49.906;10.908;2022-12-29T10:51:22;9.90;99.90
1994;DHT22;998;49.906;10.908;2022-12-29T10:53:53;9.90;99.90
1994;DHT22;998;49.906;10.908;2022-12-29T10:56:31;9.90;99.90
1994;DHT22;998;49.906;10.908;2022-12-29T10:59:03;9.90;99.90
1994;DHT22;998;49.906;10.908;2022-12-29T11:01:40;10.00;99.90
1994;DHT22;998;49.906;10.908;2022-12-29T11:04:26;10.00;99.90
1994;DHT22;998;49.906;10.908;2022-12-29T11:06:55;9.90;99.90
1994;DHT22;998;49.906;10.908;2022-12-29T11:09:27;10.00;99.90
1994;DHT22;998;49.906;10.908;2022-12-29T11:11:55;10.00;99.90
1994;DHT22;998;49.906;10.908;2022-12-29T11:14:27;10.00;99.90
1994;DHT22;998;49.906;10.908;2022-12-29T11:16:59;10.00;99.90
1994;DHT22;998;49.906;10.908;2022-12-29T11:19:30;10.10;99.90
1994;DHT22;998;49.906;10.908;2022-12-29T11:22:13;10.10;99.90
1994;DHT22;998;49.906;10.908;2022-12-29T11:24:44;10.20;99.90
1994;DHT22;998;49.906;10.908;2022-12-29T11:27:16;10.20;99.90
1994;DHT22;998;49.906;10.908;2022-12-29T11:29:44;10.20;99.90
1994;DHT22;998;49.906;10.908;2022-12-29T11:32:16;10.20;99.90
1994;DHT22;998;49.906;10.908;2022-12-29T11:34:45;10.20;99.90
1994;DHT22;998;49.906;10.908;2022-12-29T11:37:16;10.30;99.90
1994;DHT22;998;49.906;10.908;2022-12-29T11:39:50;10.30;99.90
1994;DHT22;998;49.906;10.908;2022-12-29T11:42:23;10.30;99.90
1994;DHT22;998;49.906;10.908;2022-12-29T11:44:51;10.30;99.90
1994;DHT22;998;49.906;10.908;2022-12-29T11:47:28;10.30;99.90
1994;DHT22;998;49.906;10.908;2022-12-29T11:50:00;10.30;99.90
1994;DHT22;998;49.906;10.908;2022-12-29T11:52:31;10.30;99.90
1994;DHT22;998;49.906;10.908;2022-12-29T11:55:02;10.40;99.90
1994;DHT22;998;49.906;10.908;2022-12-29T11:57:33;10.40;99.90
1994;DHT22;998;49.906;10.908;2022-12-29T12:00:05;10.50;99.90
1994;DHT22;998;49.906;10.908;2022-12-29T12:02:44;10.60;99.90
1994;DHT22;998;49.906;10.908;2022-12-29T12:05:36;10.60;99.90
1994;DHT22;998;49.906;10.908;2022-12-29T12:08:12;10.60;99.90
1994;DHT22;998;49.906;10.908;2022-12-29T12:10:44;10.60;99.90
1994;DHT22;998;49.906;10.908;2022-12-29T12:13:23;10.60;99.90
1994;DHT22;998;49.906;10.908;2022-12-29T12:15:57;10.60;99.90
1994;DHT22;998;49.906;10.908;2022-12-29T12:18:40;10.70;99.90
1994;DHT22;998;49.906;10.908;2022-12-29T12:21:21;10.70;99.90
1994;DHT22;998;49.906;10.908;2022-12-29T12:24:16;10.80;99.90
1994;DHT22;998;49.906;10.908;2022-12-29T12:26:55;10.80;99.90
1994;DHT22;998;49.906;10.908;2022-12-29T12:29:26;10.90;99.90
1994;DHT22;998;49.906;10.908;2022-12-29T12:31:59;10.90;99.90
1994;DHT22;998;49.906;10.908;2022-12-29T12:34:32;10.90;99.90
1994;DHT22;998;49.906;10.908;2022-12-29T12:37:31;10.90;99.90
1994;DHT22;998;49.906;10.908;2022-12-29T12:40:29;10.90;99.90
1994;DHT22;998;49.906;10.908;2022-12-29T12:43:09;10.90;99.90
1994;DHT22;998;49.906;10.908;2022-12-29T12:45:45;10.90;99.90
1994;DHT22;998;49.906;10.908;2022-12-29T12:48:28;10.90;99.90
1994;DHT22;998;49.906;10.908;2022-12-29T12:51:02;10.90;99.90
1994;DHT22;998;49.906;10.908;2022-12-29T12:53:45;10.90;99.90
1994;DHT22;998;49.906;10.908;2022-12-29T12:56:34;11.00;99.90
1994;DHT22;998;49.906;10.908;2022-12-29T12:59:10;11.10;99.90
1994;DHT22;998;49.906;10.908;2022-12-29T13:01:44;11.10;99.90
1994;DHT22;998;49.906;10.908;2022-12-29T13:04:37;11.10;99.90
1994;DHT22;998;49.906;10.908;2022-12-29T13:07:13;11.00;99.90
1994;DHT22;998;49.906;10.908;2022-12-29T13:10:08;11.10;99.90
1994;DHT22;998;49.906;10.908;2022-12-29T13:12:48;11.10;99.90
1994;DHT22;998;49.906;10.908;2022-12-29T13:15:24;11.00;99.90
1994;DHT22;998;49.906;10.908;2022-12-29T13:17:58;11.10;99.90
1994;DHT22;998;49.906;10.908;2022-12-29T13:20:33;11.10;99.90
1994;DHT22;998;49.906;10.908;2022-12-29T13:23:07;11.10;99.90
1994;DHT22;998;49.906;10.908;2022-12-29T13:25:44;11.10;99.90
1994;DHT22;998;49.906;10.908;2022-12-29T13:28:19;11.10;99.90
1994;DHT22;998;49.906;10.908;2022-12-29T13:30:56;11.10;99.90
1994;DHT22;998;49.906;10.908;2022-12-29T13:33:30;11.10;99.90
1994;DHT22;998;49.906;10.908;2022-12-29T13:36:02;11.20;99.90
1994;DHT22;998;49.906;10.908;2022-12-29T13:38:35;11.20;99.90
1994;DHT22;998;49.906;10.908;2022-12-29T13:41:08;11.20;99.90
1994;DHT22;998;49.906;10.908;2022-12-29T13:43:39;11.20;99.90
1994;DHT22;998;49.906;10.908;2022-12-29T13:46:10;11.20;99.90
1994;DHT22;998;49.906;10.908;2022-12-29T13:48:43;11.20;99.90
1994;DHT22;998;49.906;10.908;2022-12-29T13:51:13;11.30;99.90
1994;DHT22;998;49.906;10.908;2022-12-29T13:54:01;11.20;99.90
1994;DHT22;998;49.906;10.908;2022-12-29T13:56:37;11.30;99.90
1994;DHT22;998;49.906;10.908;2022-12-29T13:59:11;11.40;99.90
1994;DHT22;998;49.906;10.908;2022-12-29T14:01:46;11.40;99.90
1994;DHT22;998;49.906;10.908;2022-12-29T14:04:21;11.50;99.90
1994;DHT22;998;49.906;10.908;2022-12-29T14:06:59;11.60;99.90
1994;DHT22;998;49.906;10.908;2022-12-29T14:09:49;11.70;99.90
1994;DHT22;998;49.906;10.908;2022-12-29T14:12:29;11.80;99.90
1994;DHT22;998;49.906;10.908;2022-12-29T14:15:13;11.80;99.90
1994;DHT22;998;49.906;10.908;2022-12-29T14:17:41;11.80;99.90
1994;DHT22;998;49.906;10.908;2022-12-29T14:20:18;11.80;99.90
1994;DHT22;998;49.906;10.908;2022-12-29T14:22:57;11.80;99.90
1994;DHT22;998;49.906;10.908;2022-12-29T14:28:32;11.70;99.90
1994;DHT22;998;49.906;10.908;2022-12-29T14:31:01;11.70;99.90
1994;DHT22;998;49.906;10.908;2022-12-29T14:33:30;11.70;99.90
1994;DHT22;998;49.906;10.908;2022-12-29T14:36:19;11.70;99.90
1994;DHT22;998;49.906;10.908;2022-12-29T14:38:48;11.60;99.90
1994;DHT22;998;49.906;10.908;2022-12-29T14:44:17;11.60;99.90
1994;DHT22;998;49.906;10.908;2022-12-29T14:46:48;11.60;99.90
1994;DHT22;998;49.906;10.908;2022-12-29T14:49:18;11.70;99.90
1994;DHT22;998;49.906;10.908;2022-12-29T14:51:47;11.60;99.90
1994;DHT22;998;49.906;10.908;2022-12-29T14:54:44;11.70;99.90
1994;DHT22;998;49.906;10.908;2022-12-29T14:57:19;11.70;99.90
1994;DHT22;998;49.906;10.908;2022-12-29T14:59:53;11.60;99.90
1994;DHT22;998;49.906;10.908;2022-12-29T15:02:25;11.60;99.90
1994;DHT22;998;49.906;10.908;2022-12-29T15:04:54;11.60;99.90
1994;DHT22;998;49.906;10.908;2022-12-29T15:07:21;11.60;99.90
1994;DHT22;998;49.906;10.908;2022-12-29T15:09:54;11.60;99.90
1994;DHT22;998;49.906;10.908;2022-12-29T15:12:33;11.60;99.90
1994;DHT22;998;49.906;10.908;2022-12-29T15:15:18;11.60;99.90
1994;DHT22;998;49.906;10.908;2022-12-29T15:17:46;11.50;99.90
1994;DHT22;998;49.906;10.908;2022-12-29T15:20:28;11.50;99.90
1994;DHT22;998;49.906;10.908;2022-12-29T15:22:57;11.50;99.90
1994;DHT22;998;49.906;10.908;2022-12-29T15:25:25;11.40;99.90
1994;DHT22;998;49.906;10.908;2022-12-29T15:27:55;11.40;99.90
1994;DHT22;998;49.906;10.908;2022-12-29T15:30:25;11.30;99.90
1994;DHT22;998;49.906;10.908;2022-12-29T15:32:52;11.30;99.90
1994;DHT22;998;49.906;10.908;2022-12-29T15:35:29;11.20;99.90
1994;DHT22;998;49.906;10.908;2022-12-29T15:37:58;11.20;99.90
1994;DHT22;998;49.906;10.908;2022-12-29T15:40:30;11.20;99.90
1994;DHT22;998;49.906;10.908;2022-12-29T15:43:20;11.20;99.90
1994;DHT22;998;49.906;10.908;2022-12-29T15:45:54;11.20;99.90
1994;DHT22;998;49.906;10.908;2022-12-29T15:48:24;11.20;99.90
1994;DHT22;998;49.906;10.908;2022-12-29T15:50:52;11.10;99.90
1994;DHT22;998;49.906;10.908;2022-12-29T15:53:21;11.10;99.90
1994;DHT22;998;49.906;10.908;2022-12-29T15:55:55;11.10;99.90
1994;DHT22;998;49.906;10.908;2022-12-29T15:58:26;11.20;99.90
1994;DHT22;998;49.906;10.908;2022-12-29T16:00:56;11.20;99.90
1994;DHT22;998;49.906;10.908;2022-12-29T16:03:25;11.20;99.90
1994;DHT22;998;49.906;10.908;2022-12-29T16:05:56;11.20;99.90
1994;DHT22;998;49.906;10.908;2022-12-29T16:08:34;11.20;99.90
1994;DHT22;998;49.906;10.908;2022-12-29T16:11:07;11.20;99.90
1994;DHT22;998;49.906;10.908;2022-12-29T16:13:44;11.20;99.90
1994;DHT22;998;49.906;10.908;2022-12-29T16:16:18;11.20;99.90
1994;DHT22;998;49.906;10.908;2022-12-29T16:18:45;11.20;99.90
1994;DHT22;998;49.906;10.908;2022-12-29T16:21:17;11.20;99.90
1994;DHT22;998;49.906;10.908;2022-12-29T16:23:48;11.20;99.90
1994;DHT22;998;49.906;10.908;2022-12-29T16:26:18;11.00;99.90
1994;DHT22;998;49.906;10.908;2022-12-29T16:28:48;10.90;99.90
1994;DHT22;998;49.906;10.908;2022-12-29T16:31:21;10.90;99.90
1994;DHT22;998;49.906;10.908;2022-12-29T16:33:51;10.80;99.90
1994;DHT22;998;49.906;10.908;2022-12-29T16:36:23;10.80;99.90
1994;DHT22;998;49.906;10.908;2022-12-29T16:38:51;10.70;99.90
1994;DHT22;998;49.906;10.908;2022-12-29T16:41:30;10.60;99.90
1994;DHT22;998;49.906;10.908;2022-12-29T16:44:17;10.60;99.90
1994;DHT22;998;49.906;10.908;2022-12-29T16:47:02;10.50;99.90
1994;DHT22;998;49.906;10.908;2022-12-29T16:49:32;10.40;99.90
1994;DHT22;998;49.906;10.908;2022-12-29T16:52:00;10.40;99.90